Time;durP1;ratioP1;P1;durP2;ratioP2;P2;SDS_P1;SDS_P2;PMS_P1;PMS_P2;Temp;Humidity;BMP_temperature;BMP_pressure;BME280_temperature;BME280_humidity;BME280_pressure;Samples;Min_cycle;Max_cycle;Signal;HPM_P1;HPM_P2
2022/06/13 00:01:26;;;;;;;3.83;1.80;;;21.40;51.30;;;;;;4982694;28;20515;-42
2022/06/13 00:03:53;;;;;;;3.70;1.80;;;21.40;51.40;;;;;;4981131;28;20634;-42
2022/06/13 00:06:21;;;;;;;2.43;2.17;;;21.30;51.00;;;;;;4967937;28;21016;-42
2022/06/13 00:08:48;;;;;;;3.13;2.17;;;21.30;51.10;;;;;;4983174;28;20987;-42
2022/06/13 00:11:19;;;;;;;8.50;2.50;;;21.20;51.30;;;;;;4968252;28;20816;-42
2022/06/13 00:13:49;;;;;;;4.93;2.30;;;21.20;51.40;;;;;;4965149;28;20622;-42
2022/06/13 00:16:16;;;;;;;5.90;2.00;;;21.10;51.50;;;;;;4978375;28;20556;-42
2022/06/13 00:18:47;;;;;;;6.30;2.70;;;21.10;51.80;;;;;;4982741;28;20559;-42
2022/06/13 00:21:23;;;;;;;5.30;2.93;;;21.10;51.70;;;;;;4964791;28;20456;-42
2022/06/13 00:23:50;;;;;;;3.17;2.63;;;21.00;51.80;;;;;;4983748;28;20464;-42
2022/06/13 00:26:21;;;;;;;2.70;1.70;;;21.00;52.20;;;;;;4981647;28;20902;-43
2022/06/13 00:28:49;;;;;;;5.03;2.40;;;21.00;52.30;;;;;;4982329;28;20464;-42
2022/06/13 00:31:16;;;;;;;3.20;2.30;;;21.00;52.40;;;;;;4980942;28;20461;-43
2022/06/13 00:33:44;;;;;;;4.00;2.30;;;21.00;52.90;;;;;;4967347;28;20493;-43
2022/06/13 00:36:11;;;;;;;8.13;2.40;;;21.00;52.90;;;;;;4975775;28;20536;-42
2022/06/13 00:38:38;;;;;;;6.80;2.10;;;20.90;52.80;;;;;;4989914;28;21116;-42
2022/06/13 00:41:15;;;;;;;6.10;2.30;;;20.90;53.30;;;;;;4972250;28;20959;-42
2022/06/13 00:43:45;;;;;;;4.60;2.00;;;20.90;53.50;;;;;;4989122;28;20475;-42
2022/06/13 00:46:33;;;;;;;4.10;2.33;;;20.90;53.70;;;;;;4987466;28;21013;-42
2022/06/13 00:49:23;;;;;;;4.60;2.50;;;20.90;53.70;;;;;;4987661;28;21037;-42
2022/06/13 00:52:05;;;;;;;4.90;2.73;;;20.90;53.40;;;;;;4968849;28;21223;-42
2022/06/13 00:54:35;;;;;;;3.00;2.20;;;20.90;53.20;;;;;;4970071;28;20579;-42
2022/06/13 00:57:02;;;;;;;6.97;2.73;;;20.80;53.40;;;;;;4982407;28;20456;-42
2022/06/13 00:59:33;;;;;;;3.40;2.70;;;20.80;53.80;;;;;;4970711;28;20481;-42
2022/06/13 01:02:00;;;;;;;3.70;2.30;;;20.70;54.10;;;;;;4986075;28;20559;-42
2022/06/13 01:04:27;;;;;;;3.60;2.60;;;20.70;54.10;;;;;;4989802;28;20473;-42
2022/06/13 01:06:56;;;;;;;7.77;2.73;;;20.70;54.40;;;;;;4951377;28;20464;-42
2022/06/13 01:11:16;;;;;;;4.00;2.57;;;20.60;54.60;;;;;;4972281;28;20465;-42
2022/06/13 01:12:11;;;;;;;4.23;2.40;;;20.60;54.60;;;;;;4986022;28;20904;-42
2022/06/13 01:15:19;;;;;;;6.47;3.10;;;20.60;54.70;;;;;;4975788;28;20481;-42
2022/06/13 01:17:58;;;;;;;4.53;2.10;;;20.50;54.90;;;;;;4961459;28;21089;-42
2022/06/13 01:20:54;;;;;;;7.57;2.67;;;20.50;54.90;;;;;;4987776;28;20479;-42
2022/06/13 01:23:39;;;;;;;5.13;2.30;;;20.50;55.00;;;;;;4956658;28;20559;-42
2022/06/13 01:26:34;;;;;;;10.73;3.00;;;20.50;55.10;;;;;;4984421;28;20481;-42
2022/06/13 01:29:35;;;;;;;3.50;2.10;;;20.50;55.10;;;;;;4987336;28;20473;-42
2022/06/13 01:32:21;;;;;;;4.50;2.30;;;20.40;55.00;;;;;;4985839;28;20464;-42
2022/06/13 01:35:09;;;;;;;2.27;1.83;;;20.30;55.20;;;;;;4983587;28;20502;-42
2022/06/13 01:37:49;;;;;;;5.00;2.10;;;20.20;55.60;;;;;;4986020;28;20457;-43
2022/06/13 01:40:44;;;;;;;4.07;1.87;;;20.20;55.80;;;;;;4985747;28;20465;-42
2022/06/13 01:43:45;;;;;;;2.23;1.80;;;20.10;56.10;;;;;;4971783;28;20465;-42
2022/06/13 01:46:20;;;;;;;6.30;2.80;;;20.10;56.30;;;;;;4983569;28;20536;-42
2022/06/13 01:49:27;;;;;;;3.30;2.93;;;20.00;55.40;;;;;;4981675;28;20957;-42
2022/06/13 01:52:05;;;;;;;4.70;2.47;;;20.00;55.30;;;;;;4984958;28;20468;-42
2022/06/13 01:55:04;;;;;;;5.90;2.50;;;19.90;55.70;;;;;;4985999;28;20659;-42
2022/06/13 01:57:40;;;;;;;5.80;2.63;;;19.80;55.40;;;;;;4969745;28;20560;-42
2022/06/13 02:00:15;;;;;;;4.53;2.87;;;19.80;55.50;;;;;;4984484;28;20503;-42
2022/06/13 02:02:44;;;;;;;4.83;2.37;;;19.80;55.10;;;;;;4965512;28;20481;-42
2022/06/13 02:05:22;;;;;;;3.40;2.60;;;19.70;55.00;;;;;;4983321;28;20467;-42
2022/06/13 02:07:56;;;;;;;3.80;2.50;;;19.70;55.20;;;;;;4949429;28;20515;-42
2022/06/13 02:11:08;;;;;;;2.73;1.73;;;19.70;55.00;;;;;;4983709;28;20490;-42
2022/06/13 02:13:54;;;;;;;8.97;3.57;;;19.70;55.10;;;;;;4974973;28;20966;-42
2022/06/13 02:16:27;;;;;;;2.93;2.03;;;19.70;55.10;;;;;;4984273;28;20962;-42
2022/06/13 02:19:05;;;;;;;4.00;1.83;;;19.70;54.90;;;;;;4969069;28;20469;-42
2022/06/13 02:21:42;;;;;;;5.30;2.10;;;19.70;54.90;;;;;;4983539;28;20563;-42
2022/06/13 02:24:14;;;;;;;2.50;1.70;;;19.70;54.90;;;;;;4984759;28;20465;-42
2022/06/13 02:26:44;;;;;;;3.43;2.33;;;19.70;54.80;;;;;;4980929;28;20512;-42
2022/06/13 02:29:26;;;;;;;3.90;2.10;;;19.70;54.60;;;;;;4964133;28;20520;-42
2022/06/13 02:32:21;;;;;;;6.00;2.03;;;19.60;54.40;;;;;;4965337;28;20979;-42
2022/06/13 02:34:56;;;;;;;2.43;1.90;;;19.60;54.80;;;;;;4980316;28;20490;-42
2022/06/13 02:37:26;;;;;;;3.60;2.23;;;19.60;54.60;;;;;;4964604;28;22787;-42
2022/06/13 02:40:03;;;;;;;3.30;1.87;;;19.50;54.60;;;;;;4967394;28;20465;-42
2022/06/13 02:42:40;;;;;;;9.37;2.30;;;19.50;55.20;;;;;;4982460;28;20539;-42
2022/06/13 02:45:22;;;;;;;4.03;1.60;;;19.50;55.40;;;;;;4985536;28;20508;-42
2022/06/13 02:48:05;;;;;;;7.40;2.30;;;19.40;55.70;;;;;;4980311;28;20873;-42
2022/06/13 02:50:41;;;;;;;3.57;2.00;;;19.40;55.80;;;;;;4985159;28;20580;-42
2022/06/13 02:53:26;;;;;;;4.70;2.37;;;19.40;56.10;;;;;;4964668;28;20472;-42
2022/06/13 02:56:01;;;;;;;4.20;2.03;;;19.40;56.60;;;;;;4986820;28;20499;-43
2022/06/13 02:58:34;;;;;;;2.40;1.90;;;19.40;56.90;;;;;;4964253;28;20456;-43
2022/06/13 03:01:07;;;;;;;4.50;1.93;;;19.30;57.20;;;;;;4987405;28;20989;-43
2022/06/13 03:03:33;;;;;;;4.80;2.07;;;19.30;57.60;;;;;;4987111;28;20462;-43
2022/06/13 03:06:20;;;;;;;4.47;2.17;;;19.20;57.60;;;;;;4986334;28;20487;-43
2022/06/13 03:08:58;;;;;;;3.27;2.43;;;19.20;57.90;;;;;;4987212;28;20563;-43
2022/06/13 03:11:39;;;;;;;11.03;2.67;;;19.10;57.90;;;;;;4985357;28;20965;-43
2022/06/13 03:14:56;;;;;;;2.83;2.10;;;19.10;58.10;;;;;;4981531;28;20473;-43
2022/06/13 03:17:37;;;;;;;4.07;2.60;;;19.00;58.10;;;;;;4984041;28;20462;-43
2022/06/13 03:20:04;;;;;;;7.10;2.10;;;19.00;58.30;;;;;;4985140;28;20461;-43
2022/06/13 03:22:49;;;;;;;5.80;2.90;;;18.90;58.00;;;;;;4983169;28;20461;-43
2022/06/13 03:25:27;;;;;;;4.90;2.20;;;18.90;58.00;;;;;;4983703;28;20468;-44
2022/06/13 03:28:26;;;;;;;4.03;1.90;;;18.80;58.10;;;;;;4984764;28;20568;-43
2022/06/13 03:31:17;;;;;;;3.20;1.80;;;18.80;58.20;;;;;;4955609;28;21003;-43
2022/06/13 03:33:49;;;;;;;4.47;2.23;;;18.70;58.20;;;;;;4987452;28;20808;-43
2022/06/13 03:36:21;;;;;;;3.50;2.23;;;18.70;58.40;;;;;;4984097;28;20499;-43
2022/06/13 03:38:59;;;;;;;2.93;1.77;;;18.60;58.80;;;;;;4984416;28;20466;-43
2022/06/13 03:41:32;;;;;;;6.23;1.93;;;18.60;58.80;;;;;;4987851;28;20461;-43
2022/06/13 03:44:05;;;;;;;5.43;2.27;;;18.60;58.70;;;;;;4985816;28;20462;-43
2022/06/13 03:46:46;;;;;;;2.40;1.93;;;18.60;58.70;;;;;;4985557;28;20516;-43
2022/06/13 03:49:32;;;;;;;2.83;2.40;;;18.60;58.40;;;;;;4983972;28;20465;-43
2022/06/13 03:52:01;;;;;;;7.47;3.60;;;18.50;58.90;;;;;;4985394;28;20461;-43
2022/06/13 03:54:28;;;;;;;3.80;2.13;;;18.60;58.80;;;;;;4988297;28;20485;-43
2022/06/13 03:57:20;;;;;;;9.33;3.47;;;18.60;58.40;;;;;;4985610;28;20465;-43
2022/06/13 03:59:56;;;;;;;3.20;1.70;;;18.60;58.10;;;;;;4970894;28;20557;-43
2022/06/13 04:02:32;;;;;;;4.47;2.13;;;18.50;58.30;;;;;;4987787;28;20999;-43
2022/06/13 04:04:59;;;;;;;3.70;2.07;;;18.50;58.20;;;;;;4965161;28;20464;-43
2022/06/13 04:07:29;;;;;;;2.97;2.17;;;18.40;58.30;;;;;;4989308;28;20554;-43
2022/06/13 04:10:09;;;;;;;4.30;2.20;;;18.40;58.40;;;;;;4987295;28;20837;-43
2022/06/13 04:13:02;;;;;;;4.87;2.07;;;18.40;58.40;;;;;;4988460;28;20457;-43
2022/06/13 04:15:48;;;;;;;4.30;2.40;;;18.50;58.40;;;;;;4991737;28;20484;-43
2022/06/13 04:18:53;;;;;;;3.87;2.00;;;18.50;58.40;;;;;;4989683;28;20563;-43
2022/06/13 04:21:39;;;;;;;4.13;2.20;;;18.60;58.40;;;;;;4988223;28;20464;-46
2022/06/13 04:24:14;;;;;;;4.30;2.43;;;18.60;58.50;;;;;;4990986;28;20487;-44
2022/06/13 04:26:52;;;;;;;6.07;2.33;;;18.50;58.60;;;;;;4989236;28;20518;-43
2022/06/13 04:29:36;;;;;;;3.13;2.30;;;18.60;59.20;;;;;;4985350;28;20558;-43
2022/06/13 04:32:08;;;;;;;4.00;2.03;;;18.60;59.30;;;;;;4972898;28;20808;-43
2022/06/13 04:34:45;;;;;;;5.47;1.97;;;18.60;59.30;;;;;;4991155;28;20473;-43
2022/06/13 04:37:13;;;;;;;3.67;2.20;;;18.60;59.80;;;;;;4984453;28;20465;-43
2022/06/13 04:39:42;;;;;;;3.63;2.63;;;18.60;59.90;;;;;;4968948;28;20467;-43
2022/06/13 04:42:11;;;;;;;4.63;2.33;;;18.60;60.00;;;;;;4988376;28;20552;-43
2022/06/13 04:44:40;;;;;;;4.13;2.57;;;18.50;60.10;;;;;;4987537;28;20455;-43
2022/06/13 04:47:08;;;;;;;6.70;3.10;;;18.50;60.30;;;;;;4969618;28;20540;-43
2022/06/13 04:49:50;;;;;;;7.53;2.33;;;18.50;60.20;;;;;;4985886;28;20798;-43
2022/06/13 04:52:23;;;;;;;2.93;2.70;;;18.40;60.40;;;;;;4969487;28;20472;-43
2022/06/13 04:55:01;;;;;;;3.67;2.30;;;18.40;60.40;;;;;;4987407;28;20869;-43
2022/06/13 04:57:29;;;;;;;3.50;2.60;;;18.30;60.90;;;;;;4988088;28;20457;-43
2022/06/13 04:59:56;;;;;;;5.40;3.30;;;18.30;61.10;;;;;;4988808;28;20489;-45
2022/06/13 05:02:37;;;;;;;3.80;3.43;;;18.30;61.10;;;;;;4987852;28;20469;-43
2022/06/13 05:05:08;;;;;;;6.87;2.83;;;18.30;61.40;;;;;;4985601;28;20989;-43
2022/06/13 05:07:35;;;;;;;4.70;2.27;;;18.30;61.70;;;;;;4988862;28;20977;-43
2022/06/13 05:10:06;;;;;;;3.30;2.53;;;18.30;61.60;;;;;;4957114;28;20468;-43
2022/06/13 05:12:38;;;;;;;8.33;2.83;;;18.30;61.80;;;;;;4984468;28;20469;-43
2022/06/13 05:15:09;;;;;;;5.57;3.80;;;18.30;61.80;;;;;;4987393;28;20956;-43
2022/06/13 05:17:54;;;;;;;5.73;2.60;;;18.40;61.50;;;;;;4986384;28;20465;-43
2022/06/13 05:20:46;;;;;;;4.67;2.40;;;18.40;61.20;;;;;;4971019;28;20461;-43
2022/06/13 05:23:39;;;;;;;3.60;2.40;;;18.40;60.90;;;;;;4983790;28;20465;-43
2022/06/13 05:26:07;;;;;;;5.27;2.87;;;18.40;61.20;;;;;;4986300;28;20461;-43
2022/06/13 05:28:35;;;;;;;4.27;2.67;;;18.40;61.80;;;;;;4974531;28;20473;-43
2022/06/13 05:31:18;;;;;;;5.50;2.90;;;18.40;61.60;;;;;;4981852;28;22821;-43
2022/06/13 05:33:48;;;;;;;9.50;2.87;;;18.50;61.40;;;;;;4984121;28;20831;-44
2022/06/13 05:36:19;;;;;;;7.90;2.70;;;18.50;61.50;;;;;;4985089;28;20500;-43
2022/06/13 05:38:51;;;;;;;6.57;2.63;;;18.60;61.10;;;;;;4989587;28;20464;-43
2022/06/13 05:41:18;;;;;;;4.63;2.03;;;18.70;60.90;;;;;;4985181;28;20457;-43
2022/06/13 05:43:45;;;;;;;3.40;2.10;;;18.70;60.30;;;;;;4988211;28;20461;-44
2022/06/13 05:46:19;;;;;;;8.00;2.70;;;18.70;60.40;;;;;;4972751;28;20507;-43
2022/06/13 05:48:50;;;;;;;6.43;2.80;;;18.80;60.70;;;;;;4987965;28;20474;-43
2022/06/13 05:51:16;;;;;;;4.17;2.57;;;18.80;60.30;;;;;;4969918;28;20465;-43
2022/06/13 05:53:43;;;;;;;4.17;2.47;;;18.80;60.50;;;;;;4966416;28;20465;-43
2022/06/13 05:56:11;;;;;;;7.10;2.27;;;18.90;60.50;;;;;;4987005;28;20492;-43
2022/06/13 05:58:38;;;;;;;4.07;2.13;;;19.00;59.80;;;;;;4973267;28;20461;-43
2022/06/13 06:01:06;;;;;;;4.43;2.30;;;19.00;59.80;;;;;;4989448;28;20489;-43
2022/06/13 06:03:33;;;;;;;4.93;2.97;;;19.00;59.00;;;;;;4965937;28;20862;-46
2022/06/13 06:06:01;;;;;;;4.20;2.33;;;19.10;58.40;;;;;;4972092;28;20479;-46
2022/06/13 06:08:35;;;;;;;4.83;2.73;;;19.10;58.50;;;;;;4956635;28;20462;-50
2022/06/13 06:11:02;;;;;;;2.77;2.10;;;19.20;58.20;;;;;;4990146;28;20848;-46
2022/06/13 06:13:30;;;;;;;3.83;2.40;;;19.30;57.50;;;;;;4988821;28;20474;-46
2022/06/13 06:16:00;;;;;;;7.07;3.37;;;19.30;56.70;;;;;;4987200;28;20485;-46
2022/06/13 06:18:29;;;;;;;4.40;2.57;;;19.40;56.50;;;;;;4988658;28;20472;-46
2022/06/13 06:20:56;;;;;;;3.00;1.97;;;19.40;56.50;;;;;;4990967;28;20537;-48
2022/06/13 06:23:23;;;;;;;4.77;2.70;;;19.40;57.20;;;;;;4970471;28;20553;-45
2022/06/13 06:25:50;;;;;;;7.37;2.40;;;19.40;57.20;;;;;;4969940;28;20532;-45
2022/06/13 06:28:24;;;;;;;5.10;2.23;;;19.50;57.50;;;;;;4983635;28;20972;-45
2022/06/13 06:30:52;;;;;;;5.47;2.13;;;19.50;57.30;;;;;;4988327;28;20465;-45
2022/06/13 06:33:21;;;;;;;5.07;3.10;;;19.50;57.20;;;;;;4989266;28;21067;-44
2022/06/13 06:35:57;;;;;;;8.17;3.27;;;19.60;56.70;;;;;;4989886;28;20497;-44
2022/06/13 06:38:25;;;;;;;5.70;2.97;;;19.60;56.50;;;;;;4988285;28;20457;-44
2022/06/13 06:40:52;;;;;;;4.30;1.93;;;19.70;56.60;;;;;;4972636;28;20831;-44
2022/06/13 06:43:19;;;;;;;5.97;1.90;;;19.80;56.80;;;;;;4989098;28;20982;-43
2022/06/13 06:45:46;;;;;;;4.30;2.40;;;19.90;56.20;;;;;;4986495;28;20468;-47
2022/06/13 06:48:19;;;;;;;4.23;2.17;;;19.90;54.60;;;;;;4988573;28;20468;-47
2022/06/13 06:50:49;;;;;;;4.10;2.23;;;19.90;54.90;;;;;;4986857;28;20539;-47
2022/06/13 06:53:24;;;;;;;7.10;1.90;;;20.00;54.50;;;;;;4987677;28;20477;-47
2022/06/13 07:01:27;;;;;;;6.40;2.43;;;20.10;54.40;;;;;;4983063;28;20600;-45
2022/06/13 07:03:54;;;;;;;2.93;2.40;;;20.10;54.50;;;;;;4969156;28;20935;-47
2022/06/13 07:06:20;;;;;;;3.10;1.70;;;20.20;51.70;;;;;;4984966;28;20841;-47
2022/06/13 07:08:47;;;;;;;4.73;2.50;;;20.30;52.50;;;;;;4987852;28;20842;-47
2022/06/13 07:14:06;;;;;;;3.60;2.37;;;20.50;51.80;;;;;;4979175;28;20473;-45
2022/06/13 07:16:33;;;;;;;3.10;1.93;;;20.50;51.30;;;;;;4983904;28;20485;-45
2022/06/13 07:19:00;;;;;;;4.53;2.20;;;20.60;52.00;;;;;;4971707;28;20508;-45
2022/06/13 07:21:27;;;;;;;3.53;1.83;;;20.80;51.60;;;;;;4985231;28;20469;-45
2022/06/13 07:23:53;;;;;;;5.63;2.30;;;21.00;50.60;;;;;;4986723;28;20475;-45
2022/06/13 07:26:20;;;;;;;5.20;2.70;;;21.10;50.50;;;;;;4965781;28;20476;-45
2022/06/13 07:28:53;;;;;;;4.97;2.83;;;21.20;50.50;;;;;;4987036;28;20461;-45
2022/06/13 07:31:25;;;;;;;4.10;2.37;;;21.20;50.00;;;;;;4970045;28;20552;-45
2022/06/13 07:33:52;;;;;;;4.57;2.07;;;21.20;50.20;;;;;;4983704;28;20555;-45
2022/06/13 07:36:19;;;;;;;5.60;2.27;;;21.30;49.50;;;;;;4951059;28;20848;-45
2022/06/13 07:38:47;;;;;;;2.80;2.10;;;21.30;49.60;;;;;;4984256;28;20836;-45
2022/06/13 07:41:18;;;;;;;3.90;2.10;;;21.30;49.80;;;;;;4983186;28;20452;-45
2022/06/13 07:43:46;;;;;;;3.40;2.00;;;21.40;49.40;;;;;;4986385;28;20461;-45
2022/06/13 07:46:13;;;;;;;3.47;2.00;;;21.40;49.60;;;;;;4985009;28;20465;-45
2022/06/13 07:48:40;;;;;;;3.30;2.10;;;21.60;49.80;;;;;;4964993;28;20465;-45
2022/06/13 07:51:08;;;;;;;5.97;2.47;;;21.70;48.80;;;;;;4969022;28;20996;-45
2022/06/13 07:53:35;;;;;;;5.87;1.83;;;21.80;48.90;;;;;;4987119;28;21034;-45
2022/06/13 07:56:25;;;;;;;6.10;2.00;;;22.00;48.50;;;;;;4985061;28;20477;-45
2022/06/13 07:58:53;;;;;;;6.50;2.20;;;22.20;48.40;;;;;;4984229;28;20993;-45
2022/06/13 08:01:21;;;;;;;2.70;2.20;;;22.40;47.50;;;;;;4963729;28;20995;-45
2022/06/13 08:03:50;;;;;;;4.17;1.93;;;22.40;47.30;;;;;;4985183;28;20493;-45
2022/06/13 08:06:16;;;;;;;3.03;2.20;;;22.50;46.90;;;;;;4983647;28;20463;-44
2022/06/13 08:08:45;;;;;;;5.47;1.80;;;22.60;46.10;;;;;;4986930;28;20453;-45
2022/06/13 08:11:16;;;;;;;4.17;1.60;;;22.80;45.10;;;;;;4984643;28;20473;-44
2022/06/13 08:13:46;;;;;;;7.70;2.23;;;22.90;45.70;;;;;;4985404;28;20470;-44
2022/06/13 08:16:13;;;;;;;4.80;1.50;;;22.90;44.00;;;;;;4977488;28;20484;-44
2022/06/13 08:18:40;;;;;;;4.63;1.77;;;22.90;45.10;;;;;;4986234;28;20464;-45
2022/06/13 08:21:07;;;;;;;3.50;1.80;;;22.90;44.80;;;;;;4981160;28;20458;-44
2022/06/13 08:23:34;;;;;;;3.20;2.30;;;22.90;45.30;;;;;;4980814;28;20460;-45
2022/06/13 08:26:01;;;;;;;3.83;2.10;;;23.00;45.50;;;;;;4983140;28;20982;-44
2022/06/13 08:28:28;;;;;;;4.37;1.73;;;23.00;45.30;;;;;;4981411;28;20461;-44
2022/06/13 08:30:59;;;;;;;4.20;2.03;;;23.10;45.60;;;;;;4981739;28;20992;-44
2022/06/13 08:33:26;;;;;;;5.17;2.00;;;23.20;44.90;;;;;;4981623;28;20465;-44
2022/06/13 08:35:54;;;;;;;5.30;2.57;;;23.40;44.80;;;;;;4981576;28;20575;-45
2022/06/13 08:38:22;;;;;;;5.13;2.10;;;23.50;45.20;;;;;;4968469;28;20460;-45
2022/06/13 08:41:11;;;;;;;3.20;1.63;;;23.80;44.20;;;;;;4979638;28;20461;-45
2022/06/13 08:44:00;;;;;;;1.87;1.50;;;24.10;44.30;;;;;;4989119;28;20536;-45
2022/06/13 08:46:46;;;;;;;3.50;1.70;;;24.40;44.30;;;;;;4987270;28;20887;-44
2022/06/13 08:49:25;;;;;;;4.80;2.37;;;24.70;43.30;;;;;;4984017;28;20457;-45
2022/06/13 08:52:01;;;;;;;4.00;1.90;;;24.80;43.70;;;;;;4987538;28;20461;-45
2022/06/13 08:54:34;;;;;;;2.93;2.10;;;24.90;42.00;;;;;;4970882;28;20468;-45
2022/06/13 08:57:07;;;;;;;4.23;2.10;;;24.90;41.00;;;;;;4982766;28;20591;-45
2022/06/13 08:59:40;;;;;;;2.47;2.13;;;24.90;41.90;;;;;;4981513;28;21000;-45
2022/06/13 09:02:19;;;;;;;3.57;1.73;;;24.90;41.60;;;;;;4983277;28;20475;-45
2022/06/13 09:05:01;;;;;;;3.60;2.00;;;25.00;41.40;;;;;;4988032;28;20539;-45
2022/06/13 09:07:37;;;;;;;3.00;1.80;;;24.90;41.10;;;;;;4987062;28;20914;-45
2022/06/13 09:10:11;;;;;;;2.77;1.60;;;24.80;42.00;;;;;;4985523;28;20472;-45
2022/06/13 09:12:42;;;;;;;4.97;1.70;;;24.50;42.10;;;;;;4985105;28;20464;-45
2022/06/13 09:15:17;;;;;;;4.77;1.80;;;24.20;42.20;;;;;;4986616;28;20461;-45
2022/06/13 09:18:05;;;;;;;2.37;2.00;;;23.80;42.10;;;;;;4989741;28;20859;-45
2022/06/13 09:20:46;;;;;;;4.10;1.93;;;23.60;42.50;;;;;;4972981;28;20950;-45
2022/06/13 09:23:37;;;;;;;4.17;1.83;;;23.60;42.70;;;;;;4966969;28;20864;-45
2022/06/13 09:26:25;;;;;;;3.53;1.77;;;23.70;42.60;;;;;;4985951;28;20464;-45
2022/06/13 09:29:08;;;;;;;2.93;1.80;;;23.80;42.20;;;;;;4987800;28;21783;-45
2022/06/13 09:31:42;;;;;;;2.53;2.03;;;24.10;42.00;;;;;;4988756;28;21032;-45
2022/06/13 09:34:19;;;;;;;2.13;1.70;;;24.40;40.90;;;;;;4970357;28;20468;-45
2022/06/13 09:37:11;;;;;;;5.33;1.93;;;24.70;40.60;;;;;;4978922;28;20488;-45
2022/06/13 09:39:39;;;;;;;6.10;2.10;;;24.80;40.00;;;;;;4984561;28;20462;-45
2022/06/13 09:42:30;;;;;;;6.40;2.53;;;25.00;39.90;;;;;;4991025;28;20471;-46
2022/06/13 09:45:24;;;;;;;4.83;1.90;;;25.00;39.70;;;;;;4990901;28;20452;-45
2022/06/13 09:48:16;;;;;;;4.13;1.83;;;25.10;39.90;;;;;;4988953;28;20464;-45
2022/06/13 09:51:05;;;;;;;3.00;2.03;;;25.30;39.10;;;;;;4989261;28;20455;-45
2022/06/13 09:53:48;;;;;;;4.53;1.80;;;25.50;38.00;;;;;;4989002;28;20483;-45
2022/06/13 09:56:32;;;;;;;3.70;2.20;;;25.60;38.30;;;;;;4967971;28;20491;-45
2022/06/13 09:59:13;;;;;;;5.27;3.00;;;25.40;39.40;;;;;;4982097;28;21007;-45
2022/06/13 10:02:18;;;;;;;3.80;2.20;;;25.30;39.50;;;;;;4982999;28;20811;-45
2022/06/13 10:05:00;;;;;;;2.70;1.73;;;25.00;39.40;;;;;;4978816;28;20460;-45
2022/06/13 10:07:41;;;;;;;2.50;1.53;;;24.80;39.20;;;;;;4988430;28;20448;-45
2022/06/13 10:10:16;;;;;;;3.00;1.43;;;24.60;39.80;;;;;;4987946;28;20748;-45
2022/06/13 10:13:03;;;;;;;1.60;1.50;;;24.30;40.40;;;;;;4988737;28;20890;-44
2022/06/13 10:16:12;;;;;;;4.93;2.03;;;24.00;40.90;;;;;;4971455;28;20454;-44
2022/06/13 10:18:44;;;;;;;2.53;1.67;;;24.00;40.80;;;;;;4987038;28;20885;-45
2022/06/13 10:21:36;;;;;;;3.10;2.30;;;24.00;40.90;;;;;;4989544;28;20447;-45
2022/06/13 10:24:24;;;;;;;3.57;2.37;;;23.80;41.30;;;;;;4986946;28;20967;-44
2022/06/13 10:27:06;;;;;;;4.83;2.53;;;23.70;42.40;;;;;;4986446;28;20464;-45
2022/06/13 10:29:49;;;;;;;3.27;1.70;;;23.60;43.50;;;;;;4984906;28;20472;-45
2022/06/13 10:32:40;;;;;;;6.40;1.70;;;23.50;43.10;;;;;;4982708;28;20496;-45
2022/06/13 10:35:16;;;;;;;2.53;1.77;;;23.30;43.00;;;;;;4987237;28;20469;-45
2022/06/13 10:38:01;;;;;;;3.50;1.90;;;23.10;43.10;;;;;;4986181;28;20492;-45
2022/06/13 10:40:28;;;;;;;5.70;2.30;;;23.00;43.80;;;;;;4981976;28;20929;-45
2022/06/13 10:42:55;;;;;;;3.80;2.50;;;23.00;44.40;;;;;;4974561;28;20547;-48
2022/06/13 10:45:23;;;;;;;6.80;3.30;;;23.10;44.90;;;;;;4984011;28;20615;-46
2022/06/13 10:47:59;;;;;;;4.43;3.00;;;23.10;45.40;;;;;;4981036;28;20472;-46
2022/06/13 10:50:59;;;;;;;4.03;2.60;;;23.20;45.20;;;;;;4965696;28;20471;-44
2022/06/13 10:53:51;;;;;;;3.80;2.03;;;23.30;45.40;;;;;;4982095;28;20504;-44
2022/06/13 10:56:27;;;;;;;6.87;2.80;;;23.30;44.90;;;;;;4988179;28;20497;-44
2022/06/13 10:58:58;;;;;;;4.97;2.47;;;23.30;45.50;;;;;;4986234;28;20504;-44
2022/06/13 11:01:30;;;;;;;4.63;2.33;;;23.40;45.60;;;;;;4985496;28;20479;-44
2022/06/13 11:04:15;;;;;;;3.17;2.17;;;23.40;45.60;;;;;;4970380;28;20483;-44
2022/06/13 11:06:54;;;;;;;6.57;2.50;;;23.40;45.30;;;;;;4966839;28;20559;-44
2022/06/13 11:09:35;;;;;;;5.07;2.30;;;23.30;45.50;;;;;;4982744;28;20555;-45
2022/06/13 11:12:05;;;;;;;5.23;2.73;;;23.30;45.90;;;;;;4983969;28;20960;-45
2022/06/13 11:23:07;;;;;;;2.30;2.03;;;23.20;45.30;;;;;;4985446;28;20483;-45
2022/06/13 11:25:36;;;;;;;4.80;2.90;;;23.20;45.80;;;;;;4985028;28;20537;-45
2022/06/13 11:28:21;;;;;;;3.57;2.30;;;23.20;44.90;;;;;;4983466;28;20456;-45
2022/06/13 11:30:50;;;;;;;4.17;2.30;;;23.10;45.30;;;;;;4981501;28;20470;-45
2022/06/13 11:33:23;;;;;;;5.23;2.43;;;23.10;45.70;;;;;;4979733;28;20484;-45
2022/06/13 11:36:17;;;;;;;3.63;2.20;;;23.10;46.20;;;;;;4984519;28;20464;-45
2022/06/13 11:39:10;;;;;;;7.67;2.90;;;23.20;45.70;;;;;;4984672;28;20989;-45
2022/06/13 11:41:45;;;;;;;8.87;2.70;;;23.30;46.50;;;;;;4978190;28;21510;-45
2022/06/13 11:44:17;;;;;;;4.20;2.07;;;23.30;45.60;;;;;;4983590;28;20447;-47
2022/06/13 11:46:53;;;;;;;3.73;2.37;;;23.30;45.60;;;;;;4986710;28;20468;-47
2022/06/13 11:49:28;;;;;;;3.40;2.37;;;23.20;46.30;;;;;;4986987;28;20468;-48
2022/06/13 11:55:27;;;;;;;6.70;3.30;;;23.00;46.60;;;;;;4979465;28;20472;-48
2022/06/13 11:57:59;;;;;;;3.37;2.53;;;22.90;47.10;;;;;;4974268;28;20488;-48
2022/06/13 12:00:37;;;;;;;5.77;2.80;;;22.80;47.70;;;;;;4975116;28;20480;-47
2022/06/13 12:03:14;;;;;;;8.37;2.77;;;22.80;47.50;;;;;;4969016;28;20554;-48
2022/06/13 12:05:40;;;;;;;5.83;2.80;;;22.80;47.70;;;;;;4982860;28;20461;-43
2022/06/13 12:08:16;;;;;;;5.23;3.27;;;22.80;48.10;;;;;;4986688;28;20468;-43
2022/06/13 12:10:57;;;;;;;5.63;2.90;;;22.80;48.00;;;;;;4983218;28;21066;-44
2022/06/13 12:13:25;;;;;;;6.00;2.80;;;22.80;47.50;;;;;;4984294;28;20563;-43
2022/06/13 12:16:12;;;;;;;4.60;2.40;;;22.90;47.50;;;;;;4986741;28;20917;-43
2022/06/13 12:18:44;;;;;;;4.77;2.53;;;22.90;47.20;;;;;;4938643;28;20579;-43
2022/06/13 12:21:29;;;;;;;6.83;3.70;;;22.90;48.00;;;;;;4978884;28;20743;-43
2022/06/13 12:24:08;;;;;;;7.00;3.07;;;23.00;47.40;;;;;;4984318;28;20471;-43
2022/06/13 12:26:39;;;;;;;7.67;3.00;;;23.10;48.00;;;;;;4989474;28;20460;-43
2022/06/13 12:29:20;;;;;;;5.33;3.20;;;23.10;47.20;;;;;;4983569;28;20461;-43
2022/06/13 12:31:58;;;;;;;4.33;3.00;;;23.10;47.60;;;;;;4985785;28;20464;-43
2022/06/13 12:34:40;;;;;;;8.47;2.93;;;23.20;46.70;;;;;;4987088;28;21391;-43
2022/06/13 12:37:30;;;;;;;5.20;2.87;;;23.20;45.80;;;;;;4988203;28;20575;-43
2022/06/13 12:40:15;;;;;;;4.73;2.80;;;23.20;46.20;;;;;;4989164;28;20491;-43
2022/06/13 12:43:23;;;;;;;5.00;2.87;;;23.20;46.30;;;;;;4988322;28;20854;-43
2022/06/13 12:46:18;;;;;;;4.07;3.07;;;23.20;45.30;;;;;;4977581;28;25094;-43
2022/06/13 12:49:07;;;;;;;5.07;2.87;;;23.20;46.40;;;;;;4988876;28;21144;-43
2022/06/13 12:51:39;;;;;;;5.70;2.67;;;23.20;46.30;;;;;;4986361;28;20548;-43
2022/06/13 12:54:45;;;;;;;5.20;2.77;;;23.20;46.00;;;;;;4987487;28;21497;-43
2022/06/13 12:57:12;;;;;;;5.00;3.33;;;23.20;45.60;;;;;;4984992;28;20531;-43
2022/06/13 12:59:56;;;;;;;4.90;2.90;;;23.30;45.80;;;;;;4984691;28;20477;-43
2022/06/13 13:02:54;;;;;;;4.30;2.70;;;23.30;45.00;;;;;;4980290;28;20555;-43
2022/06/13 13:05:58;;;;;;;5.60;2.47;;;23.30;45.00;;;;;;4983512;28;20472;-43
2022/06/13 13:08:49;;;;;;;3.00;2.30;;;23.40;44.50;;;;;;4988023;28;20480;-43
2022/06/13 13:11:45;;;;;;;5.60;2.93;;;23.30;44.40;;;;;;4986995;28;20460;-43
2022/06/13 13:14:25;;;;;;;6.50;2.93;;;23.30;45.20;;;;;;4987545;28;20457;-43
2022/06/13 13:17:05;;;;;;;4.13;2.70;;;23.20;44.50;;;;;;4964558;28;20501;-43
2022/06/13 13:19:44;;;;;;;3.50;2.77;;;23.20;44.60;;;;;;4988627;28;20465;-43
2022/06/13 13:22:14;;;;;;;4.57;2.73;;;23.20;44.80;;;;;;4967933;28;20489;-43
2022/06/13 13:25:19;;;;;;;3.30;3.00;;;23.20;44.10;;;;;;4971155;28;20856;-43
2022/06/13 13:27:52;;;;;;;14.30;3.63;;;23.20;44.10;;;;;;4987439;28;20471;-43
2022/06/13 13:30:24;;;;;;;3.53;2.60;;;23.10;44.40;;;;;;4989856;28;20595;-44
2022/06/13 13:33:10;;;;;;;8.50;3.20;;;23.10;44.70;;;;;;4987230;28;20591;-44
2022/06/13 13:35:41;;;;;;;5.43;3.03;;;23.10;43.90;;;;;;4986263;28;20489;-44
2022/06/13 13:38:18;;;;;;;4.53;2.80;;;23.10;44.30;;;;;;4986945;28;20495;-44
2022/06/13 13:40:57;;;;;;;4.13;3.10;;;23.10;45.10;;;;;;4964441;28;20466;-44
2022/06/13 13:43:35;;;;;;;6.30;3.07;;;23.20;44.50;;;;;;4966243;28;20560;-44
2022/06/13 13:46:42;;;;;;;6.90;3.00;;;23.30;43.40;;;;;;4979911;28;21240;-44
2022/06/13 13:49:12;;;;;;;2.60;2.17;;;23.40;43.60;;;;;;4982107;28;21064;-45
2022/06/13 13:51:46;;;;;;;6.27;3.17;;;23.50;43.40;;;;;;4984446;28;20553;-44
2022/06/13 13:54:22;;;;;;;7.83;3.53;;;23.50;43.10;;;;;;4984826;28;20540;-44
2022/06/13 13:56:55;;;;;;;5.07;2.73;;;23.50;43.10;;;;;;4971583;28;20459;-45